sensor_id;sensor_type;location;lat;lon;timestamp;pressure;altitude;pressure_sealevel;temperature;humidity
10060;BME280;5069;49.306;8.636;2022-07-29T00:02:32;100177.56;;;24.53;48.26
10060;BME280;5069;49.306;8.636;2022-07-29T00:05:33;100172.19;;;24.53;48.65
10060;BME280;5069;49.306;8.636;2022-07-29T00:08:35;100168.91;;;24.50;48.63
10060;BME280;5069;49.306;8.636;2022-07-29T00:11:36;100161.97;;;24.47;49.09
10060;BME280;5069;49.306;8.636;2022-07-29T00:14:38;100166.25;;;24.40;50.63
10060;BME280;5069;49.306;8.636;2022-07-29T00:17:40;100153.22;;;24.36;50.83
10060;BME280;5069;49.306;8.636;2022-07-29T00:20:41;100154.34;;;24.33;51.00
10060;BME280;5069;49.306;8.636;2022-07-29T00:23:43;100154.06;;;24.26;52.44
10060;BME280;5069;49.306;8.636;2022-07-29T00:26:44;100148.97;;;24.23;52.31
10060;BME280;5069;49.306;8.636;2022-07-29T00:29:46;100156.88;;;24.15;53.15
10060;BME280;5069;49.306;8.636;2022-07-29T00:32:47;100154.94;;;24.08;53.45
10060;BME280;5069;49.306;8.636;2022-07-29T00:35:49;100153.25;;;23.97;54.28
10060;BME280;5069;49.306;8.636;2022-07-29T00:38:51;100152.09;;;24.00;54.33
10060;BME280;5069;49.306;8.636;2022-07-29T00:41:52;100153.50;;;23.94;55.00
10060;BME280;5069;49.306;8.636;2022-07-29T00:44:54;100147.28;;;23.94;54.58
10060;BME280;5069;49.306;8.636;2022-07-29T00:47:55;100146.44;;;23.93;54.87
10060;BME280;5069;49.306;8.636;2022-07-29T00:50:58;100143.91;;;23.92;55.08
10060;BME280;5069;49.306;8.636;2022-07-29T00:54:02;100145.03;;;23.89;55.02
10060;BME280;5069;49.306;8.636;2022-07-29T00:57:07;100143.88;;;23.82;55.46
10060;BME280;5069;49.306;8.636;2022-07-29T01:00:12;100139.22;;;23.74;56.09
10060;BME280;5069;49.306;8.636;2022-07-29T01:03:14;100137.38;;;23.75;55.52
10060;BME280;5069;49.306;8.636;2022-07-29T01:06:16;100136.66;;;23.73;55.81
10060;BME280;5069;49.306;8.636;2022-07-29T01:09:19;100141.06;;;23.74;56.02
10060;BME280;5069;49.306;8.636;2022-07-29T01:12:43;100131.28;;;23.73;55.94
10060;BME280;5069;49.306;8.636;2022-07-29T01:15:54;100136.81;;;23.71;56.06
10060;BME280;5069;49.306;8.636;2022-07-29T01:19:07;100133.69;;;23.66;56.71
10060;BME280;5069;49.306;8.636;2022-07-29T01:22:28;100136.69;;;23.63;56.06
10060;BME280;5069;49.306;8.636;2022-07-29T01:25:43;100139.94;;;23.57;56.55
10060;BME280;5069;49.306;8.636;2022-07-29T01:32:20;100129.09;;;23.38;57.67
10060;BME280;5069;49.306;8.636;2022-07-29T01:35:40;100126.84;;;23.33;58.75
10060;BME280;5069;49.306;8.636;2022-07-29T01:38:45;100111.81;;;23.31;58.93
10060;BME280;5069;49.306;8.636;2022-07-29T01:41:57;100116.78;;;23.35;59.15
10060;BME280;5069;49.306;8.636;2022-07-29T01:48:10;100094.41;;;23.25;59.65
10060;BME280;5069;49.306;8.636;2022-07-29T01:51:21;100103.31;;;23.16;60.63
10060;BME280;5069;49.306;8.636;2022-07-29T01:54:37;100094.38;;;23.16;60.12
10060;BME280;5069;49.306;8.636;2022-07-29T01:57:42;100094.66;;;23.13;60.42
10060;BME280;5069;49.306;8.636;2022-07-29T02:00:44;100103.00;;;23.10;61.69
10060;BME280;5069;49.306;8.636;2022-07-29T02:03:48;100102.16;;;23.09;61.73
10060;BME280;5069;49.306;8.636;2022-07-29T02:06:52;100095.06;;;23.08;62.24
10060;BME280;5069;49.306;8.636;2022-07-29T02:09:56;100102.72;;;23.03;62.30
10060;BME280;5069;49.306;8.636;2022-07-29T02:12:59;100095.19;;;22.97;62.29
10060;BME280;5069;49.306;8.636;2022-07-29T02:16:05;100108.38;;;23.00;61.39
10060;BME280;5069;49.306;8.636;2022-07-29T02:19:09;100110.22;;;22.99;62.33
10060;BME280;5069;49.306;8.636;2022-07-29T02:22:12;100108.91;;;22.94;62.56
10060;BME280;5069;49.306;8.636;2022-07-29T02:25:15;100109.03;;;22.92;62.34
10060;BME280;5069;49.306;8.636;2022-07-29T02:28:18;100112.72;;;22.91;62.40
10060;BME280;5069;49.306;8.636;2022-07-29T02:31:24;100114.84;;;22.88;63.34
10060;BME280;5069;49.306;8.636;2022-07-29T02:34:28;100114.84;;;22.88;63.10
10060;BME280;5069;49.306;8.636;2022-07-29T02:37:30;100110.00;;;22.82;63.66
10060;BME280;5069;49.306;8.636;2022-07-29T02:40:34;100117.94;;;22.83;63.26
10060;BME280;5069;49.306;8.636;2022-07-29T02:43:39;100114.13;;;22.86;63.29
10060;BME280;5069;49.306;8.636;2022-07-29T02:46:46;100110.56;;;22.85;63.22
10060;BME280;5069;49.306;8.636;2022-07-29T02:50:00;100115.38;;;22.82;63.95
10060;BME280;5069;49.306;8.636;2022-07-29T02:53:10;100117.22;;;22.81;63.06
10060;BME280;5069;49.306;8.636;2022-07-29T02:56:16;100123.25;;;22.74;64.08
10060;BME280;5069;49.306;8.636;2022-07-29T02:59:22;100128.63;;;22.74;64.53
10060;BME280;5069;49.306;8.636;2022-07-29T03:02:26;100125.94;;;22.74;64.13
10060;BME280;5069;49.306;8.636;2022-07-29T03:05:32;100120.38;;;22.65;64.90
10060;BME280;5069;49.306;8.636;2022-07-29T03:08:34;100117.81;;;22.64;64.85
10060;BME280;5069;49.306;8.636;2022-07-29T03:11:37;100116.13;;;22.63;64.45
10060;BME280;5069;49.306;8.636;2022-07-29T03:14:49;100112.31;;;22.65;64.52
10060;BME280;5069;49.306;8.636;2022-07-29T03:17:52;100120.19;;;22.57;64.99
10060;BME280;5069;49.306;8.636;2022-07-29T03:20:54;100117.50;;;22.57;64.46
10060;BME280;5069;49.306;8.636;2022-07-29T03:23:55;100122.88;;;22.57;65.05
10060;BME280;5069;49.306;8.636;2022-07-29T03:26:57;100126.28;;;22.59;64.84
10060;BME280;5069;49.306;8.636;2022-07-29T03:29:59;100117.69;;;22.65;64.38
10060;BME280;5069;49.306;8.636;2022-07-29T03:33:00;100121.06;;;22.67;63.53
10060;BME280;5069;49.306;8.636;2022-07-29T03:36:02;100125.75;;;22.65;64.46
10060;BME280;5069;49.306;8.636;2022-07-29T03:39:04;100120.63;;;22.62;64.75
10060;BME280;5069;49.306;8.636;2022-07-29T03:42:08;100112.44;;;22.64;63.77
10060;BME280;5069;49.306;8.636;2022-07-29T03:45:15;100118.56;;;22.66;63.45
10060;BME280;5069;49.306;8.636;2022-07-29T03:48:20;100123.59;;;22.59;63.91
10060;BME280;5069;49.306;8.636;2022-07-29T03:51:23;100126.28;;;22.59;63.59
10060;BME280;5069;49.306;8.636;2022-07-29T03:54:34;100126.41;;;22.58;64.25
10060;BME280;5069;49.306;8.636;2022-07-29T03:57:36;100119.50;;;22.55;63.84
10060;BME280;5069;49.306;8.636;2022-07-29T04:00:40;100124.72;;;22.57;64.28
10060;BME280;5069;49.306;8.636;2022-07-29T04:03:41;100117.50;;;22.57;63.85
10060;BME280;5069;49.306;8.636;2022-07-29T04:06:45;100128.25;;;22.57;63.22
10060;BME280;5069;49.306;8.636;2022-07-29T04:09:48;100129.50;;;22.53;64.05
10060;BME280;5069;49.306;8.636;2022-07-29T04:12:50;100132.44;;;22.50;64.05
10060;BME280;5069;49.306;8.636;2022-07-29T04:15:51;100134.44;;;22.48;64.09
10060;BME280;5069;49.306;8.636;2022-07-29T04:18:53;100143.47;;;22.47;63.73
10060;BME280;5069;49.306;8.636;2022-07-29T04:21:54;100142.34;;;22.50;63.46
10060;BME280;5069;49.306;8.636;2022-07-29T04:24:56;100148.13;;;22.45;63.15
10060;BME280;5069;49.306;8.636;2022-07-29T04:28:05;100147.41;;;22.43;62.90
10060;BME280;5069;49.306;8.636;2022-07-29T04:31:06;100144.00;;;22.41;63.75
10060;BME280;5069;49.306;8.636;2022-07-29T04:34:08;100142.91;;;22.44;62.85
10060;BME280;5069;49.306;8.636;2022-07-29T04:37:10;100143.16;;;22.41;63.58
10060;BME280;5069;49.306;8.636;2022-07-29T04:40:12;100145.72;;;22.42;63.17
10060;BME280;5069;49.306;8.636;2022-07-29T04:43:14;100150.09;;;22.43;62.78
10060;BME280;5069;49.306;8.636;2022-07-29T04:46:16;100145.72;;;22.42;63.34
10060;BME280;5069;49.306;8.636;2022-07-29T04:49:17;100153.50;;;22.45;63.72
10060;BME280;5069;49.306;8.636;2022-07-29T04:52:19;100148.84;;;22.47;63.08
10060;BME280;5069;49.306;8.636;2022-07-29T04:55:20;100151.25;;;22.50;63.14
10060;BME280;5069;49.306;8.636;2022-07-29T04:58:22;100151.97;;;22.52;62.83
10060;BME280;5069;49.306;8.636;2022-07-29T05:01:24;100145.50;;;22.55;62.26
10060;BME280;5069;49.306;8.636;2022-07-29T05:04:26;100152.44;;;22.57;62.12
10060;BME280;5069;49.306;8.636;2022-07-29T05:07:27;100153.16;;;22.59;62.43
10060;BME280;5069;49.306;8.636;2022-07-29T05:10:29;100158.13;;;22.64;61.98
10060;BME280;5069;49.306;8.636;2022-07-29T05:13:30;100158.00;;;22.65;62.42
10060;BME280;5069;49.306;8.636;2022-07-29T05:16:47;100166.25;;;22.74;61.88
10060;BME280;5069;49.306;8.636;2022-07-29T05:19:49;100159.78;;;22.76;61.27
10060;BME280;5069;49.306;8.636;2022-07-29T05:22:52;100168.81;;;22.75;60.84
10060;BME280;5069;49.306;8.636;2022-07-29T05:25:53;100157.94;;;22.77;60.52
10060;BME280;5069;49.306;8.636;2022-07-29T05:28:55;100168.16;;;22.83;59.83
10060;BME280;5069;49.306;8.636;2022-07-29T05:31:57;100164.38;;;22.95;59.45
10060;BME280;5069;49.306;8.636;2022-07-29T05:34:58;100161.16;;;23.01;59.33
10060;BME280;5069;49.306;8.636;2022-07-29T05:38:00;100161.84;;;23.03;59.10
10060;BME280;5069;49.306;8.636;2022-07-29T05:41:02;100166.53;;;23.01;58.95
10060;BME280;5069;49.306;8.636;2022-07-29T05:44:04;100172.28;;;22.96;59.47
10060;BME280;5069;49.306;8.636;2022-07-29T05:47:05;100170.34;;;22.98;59.53
10060;BME280;5069;49.306;8.636;2022-07-29T05:50:08;100179.81;;;23.02;59.15
10060;BME280;5069;49.306;8.636;2022-07-29T05:53:09;100170.63;;;23.05;58.79
10060;BME280;5069;49.306;8.636;2022-07-29T05:56:20;100183.38;;;23.13;58.30
10060;BME280;5069;49.306;8.636;2022-07-29T05:59:21;100183.69;;;23.19;57.46
10060;BME280;5069;49.306;8.636;2022-07-29T06:02:31;100190.78;;;23.20;57.40
10060;BME280;5069;49.306;8.636;2022-07-29T06:05:32;100193.03;;;23.15;57.36
10060;BME280;5069;49.306;8.636;2022-07-29T06:08:34;100192.16;;;23.05;56.98
10060;BME280;5069;49.306;8.636;2022-07-29T06:11:37;100196.09;;;23.01;57.24
10060;BME280;5069;49.306;8.636;2022-07-29T06:14:38;100197.00;;;23.11;56.82
10060;BME280;5069;49.306;8.636;2022-07-29T06:17:40;100199.38;;;23.14;56.76
10060;BME280;5069;49.306;8.636;2022-07-29T06:21:07;100203.38;;;23.20;56.53
10060;BME280;5069;49.306;8.636;2022-07-29T06:24:14;100207.25;;;23.36;56.81
10060;BME280;5069;49.306;8.636;2022-07-29T06:27:16;100206.34;;;23.57;56.19
10060;BME280;5069;49.306;8.636;2022-07-29T06:30:17;100214.13;;;23.60;55.82
10060;BME280;5069;49.306;8.636;2022-07-29T06:33:19;100207.88;;;23.50;56.61
10060;BME280;5069;49.306;8.636;2022-07-29T06:36:20;100202.94;;;23.55;56.63
10060;BME280;5069;49.306;8.636;2022-07-29T06:39:25;100220.91;;;23.64;56.70
10060;BME280;5069;49.306;8.636;2022-07-29T06:42:26;100213.88;;;23.63;56.78
10060;BME280;5069;49.306;8.636;2022-07-29T06:45:28;100217.53;;;23.62;57.31
10060;BME280;5069;49.306;8.636;2022-07-29T06:48:30;100219.25;;;23.63;57.14
10060;BME280;5069;49.306;8.636;2022-07-29T06:51:31;100217.25;;;23.65;57.18
10060;BME280;5069;49.306;8.636;2022-07-29T06:54:33;100222.78;;;23.63;57.46
10060;BME280;5069;49.306;8.636;2022-07-29T06:57:34;100227.63;;;23.79;56.45
10060;BME280;5069;49.306;8.636;2022-07-29T07:00:36;100228.31;;;23.81;56.60
10060;BME280;5069;49.306;8.636;2022-07-29T07:03:37;100229.88;;;23.93;56.46
10060;BME280;5069;49.306;8.636;2022-07-29T07:06:39;100223.38;;;24.05;56.13
10060;BME280;5069;49.306;8.636;2022-07-29T07:09:41;100227.22;;;24.12;56.53
10060;BME280;5069;49.306;8.636;2022-07-29T07:12:42;100228.38;;;24.19;56.99
10060;BME280;5069;49.306;8.636;2022-07-29T07:15:44;100232.91;;;24.28;56.37
10060;BME280;5069;49.306;8.636;2022-07-29T07:18:46;100224.81;;;24.28;56.29
10060;BME280;5069;49.306;8.636;2022-07-29T07:21:48;100231.19;;;24.27;56.21
10060;BME280;5069;49.306;8.636;2022-07-29T07:24:49;100235.47;;;24.30;56.89
10060;BME280;5069;49.306;8.636;2022-07-29T07:27:51;100228.91;;;24.33;57.17
10060;BME280;5069;49.306;8.636;2022-07-29T07:30:52;100231.78;;;24.31;58.91
10060;BME280;5069;49.306;8.636;2022-07-29T07:33:54;100235.75;;;24.37;59.30
10060;BME280;5069;49.306;8.636;2022-07-29T07:36:56;100236.28;;;24.50;59.85
10060;BME280;5069;49.306;8.636;2022-07-29T07:39:57;100241.09;;;24.56;59.74
10060;BME280;5069;49.306;8.636;2022-07-29T07:42:59;100237.66;;;24.73;60.33
10060;BME280;5069;49.306;8.636;2022-07-29T07:46:00;100235.44;;;24.59;59.94
10060;BME280;5069;49.306;8.636;2022-07-29T07:49:02;100233.16;;;24.45;60.30
10060;BME280;5069;49.306;8.636;2022-07-29T07:52:04;100229.63;;;24.54;60.04
10060;BME280;5069;49.306;8.636;2022-07-29T07:55:07;100232.09;;;24.84;59.21
10060;BME280;5069;49.306;8.636;2022-07-29T07:58:09;100225.44;;;24.79;59.39
10060;BME280;5069;49.306;8.636;2022-07-29T08:01:10;100231.41;;;24.73;59.31
10060;BME280;5069;49.306;8.636;2022-07-29T08:04:12;100228.53;;;24.84;59.27
10060;BME280;5069;49.306;8.636;2022-07-29T08:07:14;100231.66;;;24.98;59.33
10060;BME280;5069;49.306;8.636;2022-07-29T08:10:18;100232.13;;;25.21;59.53
10060;BME280;5069;49.306;8.636;2022-07-29T08:13:38;100234.13;;;25.19;58.63
10060;BME280;5069;49.306;8.636;2022-07-29T08:16:40;100234.91;;;25.66;58.09
10060;BME280;5069;49.306;8.636;2022-07-29T08:19:43;100234.69;;;25.77;56.67
10060;BME280;5069;49.306;8.636;2022-07-29T08:22:45;100235.16;;;25.90;56.20
10060;BME280;5069;49.306;8.636;2022-07-29T08:25:47;100232.47;;;26.08;56.06
10060;BME280;5069;49.306;8.636;2022-07-29T08:28:50;100235.84;;;25.92;55.31
10060;BME280;5069;49.306;8.636;2022-07-29T08:31:52;100236.16;;;25.89;55.39
10060;BME280;5069;49.306;8.636;2022-07-29T08:34:54;100242.22;;;25.56;56.40
10060;BME280;5069;49.306;8.636;2022-07-29T08:37:55;100233.13;;;25.47;57.44
10060;BME280;5069;49.306;8.636;2022-07-29T08:40:58;100241.78;;;25.51;57.74
10060;BME280;5069;49.306;8.636;2022-07-29T08:44:01;100239.16;;;25.86;57.63
10060;BME280;5069;49.306;8.636;2022-07-29T08:47:03;100250.13;;;26.20;57.16
10060;BME280;5069;49.306;8.636;2022-07-29T08:50:05;100247.81;;;26.08;56.55
10060;BME280;5069;49.306;8.636;2022-07-29T08:53:11;100247.81;;;26.08;56.79
10060;BME280;5069;49.306;8.636;2022-07-29T08:56:14;100236.63;;;26.38;56.70
10060;BME280;5069;49.306;8.636;2022-07-29T08:59:17;100241.03;;;26.39;56.81
10060;BME280;5069;49.306;8.636;2022-07-29T09:02:22;100241.78;;;26.49;55.06
10060;BME280;5069;49.306;8.636;2022-07-29T09:05:25;100236.53;;;26.65;53.59
10060;BME280;5069;49.306;8.636;2022-07-29T09:08:27;100241.00;;;26.21;54.29
10060;BME280;5069;49.306;8.636;2022-07-29T09:11:29;100231.59;;;26.43;53.67
10060;BME280;5069;49.306;8.636;2022-07-29T09:14:33;100232.78;;;26.41;52.85
10060;BME280;5069;49.306;8.636;2022-07-29T09:17:46;100237.41;;;26.48;53.17
10060;BME280;5069;49.306;8.636;2022-07-29T09:20:52;100242.84;;;26.30;53.51
10060;BME280;5069;49.306;8.636;2022-07-29T09:24:13;100243.19;;;26.18;54.48
10060;BME280;5069;49.306;8.636;2022-07-29T09:27:23;100248.00;;;26.24;54.61
10060;BME280;5069;49.306;8.636;2022-07-29T09:30:27;100257.56;;;26.36;52.30
10060;BME280;5069;49.306;8.636;2022-07-29T09:33:33;100249.91;;;26.31;51.84
10060;BME280;5069;49.306;8.636;2022-07-29T09:36:45;100243.44;;;26.42;52.02
10060;BME280;5069;49.306;8.636;2022-07-29T09:39:47;100249.81;;;26.59;51.66
10060;BME280;5069;49.306;8.636;2022-07-29T09:42:49;100245.50;;;26.48;51.68
10060;BME280;5069;49.306;8.636;2022-07-29T09:45:51;100239.16;;;26.57;52.48
10060;BME280;5069;49.306;8.636;2022-07-29T09:49:12;100247.97;;;26.59;51.42
10060;BME280;5069;49.306;8.636;2022-07-29T09:52:14;100245.31;;;26.67;51.42
10060;BME280;5069;49.306;8.636;2022-07-29T09:55:16;100235.66;;;26.65;52.04
10060;BME280;5069;49.306;8.636;2022-07-29T09:58:21;100230.56;;;26.62;51.28
10060;BME280;5069;49.306;8.636;2022-07-29T10:01:30;100236.38;;;26.49;50.78
10060;BME280;5069;49.306;8.636;2022-07-29T10:04:49;100237.03;;;26.69;49.62
10060;BME280;5069;49.306;8.636;2022-07-29T10:07:51;100240.19;;;27.08;48.59
10060;BME280;5069;49.306;8.636;2022-07-29T10:11:16;100228.84;;;27.38;47.32
10060;BME280;5069;49.306;8.636;2022-07-29T10:14:17;100230.94;;;27.52;47.47
10060;BME280;5069;49.306;8.636;2022-07-29T10:17:20;100230.97;;;27.61;47.09
10060;BME280;5069;49.306;8.636;2022-07-29T10:20:23;100226.41;;;27.61;46.09
10060;BME280;5069;49.306;8.636;2022-07-29T10:23:25;100225.22;;;27.30;46.82
10060;BME280;5069;49.306;8.636;2022-07-29T10:26:29;100219.03;;;27.45;46.60
10060;BME280;5069;49.306;8.636;2022-07-29T10:29:31;100218.50;;;27.42;46.33
10060;BME280;5069;49.306;8.636;2022-07-29T10:36:07;100216.81;;;27.99;45.78
10060;BME280;5069;49.306;8.636;2022-07-29T10:39:33;100206.38;;;28.28;44.90
10060;BME280;5069;49.306;8.636;2022-07-29T10:42:45;100219.53;;;27.99;44.78
10060;BME280;5069;49.306;8.636;2022-07-29T10:45:49;100212.72;;;27.71;45.51
10060;BME280;5069;49.306;8.636;2022-07-29T10:49:11;100211.75;;;28.04;44.75
10060;BME280;5069;49.306;8.636;2022-07-29T10:52:15;100200.75;;;28.06;45.43
10060;BME280;5069;49.306;8.636;2022-07-29T10:55:32;100211.44;;;28.56;43.49
10060;BME280;5069;49.306;8.636;2022-07-29T10:58:39;100204.50;;;28.53;42.68
10060;BME280;5069;49.306;8.636;2022-07-29T11:01:41;100199.56;;;28.49;44.08
10060;BME280;5069;49.306;8.636;2022-07-29T11:11:30;100193.34;;;29.11;42.65
10060;BME280;5069;49.306;8.636;2022-07-29T11:14:58;100190.72;;;29.34;41.30
10060;BME280;5069;49.306;8.636;2022-07-29T11:21:02;100192.72;;;29.40;41.23
10060;BME280;5069;49.306;8.636;2022-07-29T11:27:31;100186.16;;;29.27;41.38
10060;BME280;5069;49.306;8.636;2022-07-29T11:30:51;100175.41;;;29.02;40.90
10060;BME280;5069;49.306;8.636;2022-07-29T11:33:53;100170.00;;;28.94;40.54
10060;BME280;5069;49.306;8.636;2022-07-29T11:37:16;100176.34;;;29.17;39.53
10060;BME280;5069;49.306;8.636;2022-07-29T11:40:20;100178.00;;;29.35;38.97
10060;BME280;5069;49.306;8.636;2022-07-29T11:46:52;100172.59;;;29.27;39.37
10060;BME280;5069;49.306;8.636;2022-07-29T11:49:56;100176.94;;;29.44;38.86
10060;BME280;5069;49.306;8.636;2022-07-29T11:53:02;100179.06;;;29.56;38.72
10060;BME280;5069;49.306;8.636;2022-07-29T11:56:12;100171.78;;;29.80;38.45
10060;BME280;5069;49.306;8.636;2022-07-29T11:59:17;100168.31;;;30.17;39.02
10060;BME280;5069;49.306;8.636;2022-07-29T12:02:20;100177.34;;;30.32;37.72
10060;BME280;5069;49.306;8.636;2022-07-29T12:05:43;100169.28;;;30.24;38.55
10060;BME280;5069;49.306;8.636;2022-07-29T12:08:48;100161.88;;;30.32;38.53
10060;BME280;5069;49.306;8.636;2022-07-29T12:11:56;100157.00;;;30.28;38.53
10060;BME280;5069;49.306;8.636;2022-07-29T12:15:16;100150.63;;;30.35;36.24
10060;BME280;5069;49.306;8.636;2022-07-29T12:18:20;100164.88;;;30.37;37.27
10060;BME280;5069;49.306;8.636;2022-07-29T12:21:24;100152.34;;;30.14;37.81
10060;BME280;5069;49.306;8.636;2022-07-29T12:24:42;100148.66;;;30.29;38.15
10060;BME280;5069;49.306;8.636;2022-07-29T12:27:45;100147.47;;;30.47;37.73
10060;BME280;5069;49.306;8.636;2022-07-29T12:30:50;100146.69;;;30.75;37.03
10060;BME280;5069;49.306;8.636;2022-07-29T12:33:52;100161.59;;;30.79;36.38
10060;BME280;5069;49.306;8.636;2022-07-29T12:36:54;100163.34;;;30.72;37.18
10060;BME280;5069;49.306;8.636;2022-07-29T12:39:56;100154.53;;;30.56;37.17
10060;BME280;5069;49.306;8.636;2022-07-29T12:43:17;100157.47;;;30.69;37.12
10060;BME280;5069;49.306;8.636;2022-07-29T12:46:19;100147.69;;;30.89;36.93
10060;BME280;5069;49.306;8.636;2022-07-29T12:49:21;100149.03;;;31.08;36.54
10060;BME280;5069;49.306;8.636;2022-07-29T12:52:34;100152.09;;;30.61;37.31
10060;BME280;5069;49.306;8.636;2022-07-29T12:55:44;100148.53;;;30.23;37.85
10060;BME280;5069;49.306;8.636;2022-07-29T12:58:46;100139.66;;;30.29;37.97
10060;BME280;5069;49.306;8.636;2022-07-29T13:01:51;100148.88;;;30.20;38.55
10060;BME280;5069;49.306;8.636;2022-07-29T13:04:57;100151.72;;;30.26;37.05
10060;BME280;5069;49.306;8.636;2022-07-29T13:08:10;100138.22;;;30.18;37.06
10060;BME280;5069;49.306;8.636;2022-07-29T13:14:35;100149.09;;;30.70;35.36
10060;BME280;5069;49.306;8.636;2022-07-29T13:17:41;100147.50;;;30.76;35.47
10060;BME280;5069;49.306;8.636;2022-07-29T13:20:48;100151.72;;;30.78;35.84
10060;BME280;5069;49.306;8.636;2022-07-29T13:23:50;100148.84;;;30.43;36.44
10060;BME280;5069;49.306;8.636;2022-07-29T13:26:51;100157.66;;;30.30;36.31
10060;BME280;5069;49.306;8.636;2022-07-29T13:29:54;100160.63;;;30.20;36.99
10060;BME280;5069;49.306;8.636;2022-07-29T13:32:57;100165.59;;;30.17;36.35
10060;BME280;5069;49.306;8.636;2022-07-29T13:35:59;100165.75;;;30.15;36.57
10060;BME280;5069;49.306;8.636;2022-07-29T13:39:00;100170.44;;;30.07;37.16
10060;BME280;5069;49.306;8.636;2022-07-29T13:42:04;100166.16;;;29.81;37.34
10060;BME280;5069;49.306;8.636;2022-07-29T13:45:11;100169.88;;;29.88;37.34
10060;BME280;5069;49.306;8.636;2022-07-29T13:48:12;100173.16;;;30.07;37.31
10060;BME280;5069;49.306;8.636;2022-07-29T13:51:14;100173.47;;;29.81;37.19
10060;BME280;5069;49.306;8.636;2022-07-29T13:54:15;100165.59;;;29.94;37.13
10060;BME280;5069;49.306;8.636;2022-07-29T13:57:17;100165.81;;;29.84;37.52
10060;BME280;5069;49.306;8.636;2022-07-29T14:00:18;100158.97;;;29.66;37.04
10060;BME280;5069;49.306;8.636;2022-07-29T14:03:20;100164.66;;;29.56;37.24
10060;BME280;5069;49.306;8.636;2022-07-29T14:06:21;100152.16;;;29.70;37.27
10060;BME280;5069;49.306;8.636;2022-07-29T14:09:23;100151.41;;;29.53;37.46
10060;BME280;5069;49.306;8.636;2022-07-29T14:12:24;100142.56;;;29.59;37.32
10060;BME280;5069;49.306;8.636;2022-07-29T14:15:26;100141.59;;;29.75;35.70
10060;BME280;5069;49.306;8.636;2022-07-29T14:18:27;100134.53;;;29.88;34.95
10060;BME280;5069;49.306;8.636;2022-07-29T14:21:29;100142.00;;;29.86;35.63
10060;BME280;5069;49.306;8.636;2022-07-29T14:24:32;100143.69;;;29.95;35.67
10060;BME280;5069;49.306;8.636;2022-07-29T14:27:37;100138.53;;;29.78;35.58
10060;BME280;5069;49.306;8.636;2022-07-29T14:30:39;100140.56;;;29.76;35.87
10060;BME280;5069;49.306;8.636;2022-07-29T14:33:41;100142.19;;;29.62;35.91
10060;BME280;5069;49.306;8.636;2022-07-29T14:36:46;100143.97;;;29.47;36.56
10060;BME280;5069;49.306;8.636;2022-07-29T14:39:47;100153.41;;;29.59;36.86
10060;BME280;5069;49.306;8.636;2022-07-29T14:42:49;100150.03;;;29.57;36.78
10060;BME280;5069;49.306;8.636;2022-07-29T14:45:50;100145.38;;;29.43;37.12
10060;BME280;5069;49.306;8.636;2022-07-29T14:48:52;100149.16;;;29.26;37.09
10060;BME280;5069;49.306;8.636;2022-07-29T14:51:53;100153.31;;;29.13;37.21
10060;BME280;5069;49.306;8.636;2022-07-29T14:54:55;100147.66;;;29.23;36.58
10060;BME280;5069;49.306;8.636;2022-07-29T14:57:57;100161.91;;;29.25;36.92
10060;BME280;5069;49.306;8.636;2022-07-29T15:01:11;100155.94;;;29.30;36.89
10060;BME280;5069;49.306;8.636;2022-07-29T15:04:12;100147.47;;;29.33;36.60
10060;BME280;5069;49.306;8.636;2022-07-29T15:07:15;100151.69;;;29.66;35.49
10060;BME280;5069;49.306;8.636;2022-07-29T15:10:17;100149.91;;;29.73;34.55
10060;BME280;5069;49.306;8.636;2022-07-29T15:13:19;100149.31;;;29.63;34.06
10060;BME280;5069;49.306;8.636;2022-07-29T15:16:20;100152.28;;;29.76;34.12
10060;BME280;5069;49.306;8.636;2022-07-29T15:19:22;100154.63;;;29.79;33.68
10060;BME280;5069;49.306;8.636;2022-07-29T15:22:23;100147.03;;;29.97;33.10
10060;BME280;5069;49.306;8.636;2022-07-29T15:25:25;100150.53;;;30.29;32.84
10060;BME280;5069;49.306;8.636;2022-07-29T15:28:28;100149.06;;;30.41;32.33
10060;BME280;5069;49.306;8.636;2022-07-29T15:31:30;100150.44;;;30.37;32.36
10060;BME280;5069;49.306;8.636;2022-07-29T15:34:31;100155.06;;;30.14;32.07
10060;BME280;5069;49.306;8.636;2022-07-29T15:37:33;100153.84;;;30.02;32.23
10060;BME280;5069;49.306;8.636;2022-07-29T15:40:49;100149.75;;;29.97;32.16
10060;BME280;5069;49.306;8.636;2022-07-29T15:43:51;100153.56;;;29.88;32.60
10060;BME280;5069;49.306;8.636;2022-07-29T15:46:52;100158.44;;;30.16;32.62
10060;BME280;5069;49.306;8.636;2022-07-29T15:50:09;100158.91;;;30.19;32.14
10060;BME280;5069;49.306;8.636;2022-07-29T15:53:15;100153.97;;;30.23;32.10
10060;BME280;5069;49.306;8.636;2022-07-29T15:56:17;100144.50;;;30.56;31.35
10060;BME280;5069;49.306;8.636;2022-07-29T15:59:19;100145.44;;;30.78;31.31
10060;BME280;5069;49.306;8.636;2022-07-29T16:02:22;100144.03;;;30.67;31.30
10060;BME280;5069;49.306;8.636;2022-07-29T16:05:24;100143.84;;;30.84;30.64
10060;BME280;5069;49.306;8.636;2022-07-29T16:08:25;100140.06;;;30.55;31.03
10060;BME280;5069;49.306;8.636;2022-07-29T16:11:27;100140.50;;;30.44;31.38
10060;BME280;5069;49.306;8.636;2022-07-29T16:14:28;100136.44;;;30.25;30.95
10060;BME280;5069;49.306;8.636;2022-07-29T16:17:30;100145.72;;;30.16;31.36
10060;BME280;5069;49.306;8.636;2022-07-29T16:20:31;100140.72;;;30.05;31.30
10060;BME280;5069;49.306;8.636;2022-07-29T16:23:33;100130.50;;;30.07;31.17
10060;BME280;5069;49.306;8.636;2022-07-29T16:26:34;100133.84;;;29.94;31.84
10060;BME280;5069;49.306;8.636;2022-07-29T16:29:36;100134.34;;;29.90;31.52
10060;BME280;5069;49.306;8.636;2022-07-29T16:32:38;100132.81;;;29.95;31.55
10060;BME280;5069;49.306;8.636;2022-07-29T16:35:40;100130.50;;;30.07;31.26
10060;BME280;5069;49.306;8.636;2022-07-29T16:38:41;100120.31;;;30.24;30.92
10060;BME280;5069;49.306;8.636;2022-07-29T16:41:48;100125.59;;;30.40;30.60
10060;BME280;5069;49.306;8.636;2022-07-29T16:44:49;100133.09;;;30.38;30.43
10060;BME280;5069;49.306;8.636;2022-07-29T16:47:53;100133.25;;;30.22;31.09